createdAt,value
2022-11-16T00:03:28.870Z,8.96
2022-11-16T00:18:30.434Z,8.53
2022-11-16T00:33:32.001Z,8.38
2022-11-16T00:48:33.794Z,8.63
2022-11-16T01:03:35.880Z,8.90
2022-11-16T01:18:37.722Z,8.74
2022-11-16T01:33:39.157Z,8.60
2022-11-16T01:48:43.935Z,8.58
2022-11-16T02:03:45.997Z,8.32
2022-11-16T02:18:47.511Z,8.32
2022-11-16T02:33:50.462Z,8.42
2022-11-16T02:48:51.882Z,8.30
2022-11-16T03:03:53.428Z,8.20
2022-11-16T03:18:54.953Z,8.21
2022-11-16T03:33:57.604Z,8.29
2022-11-16T03:48:59.497Z,8.25
2022-11-16T04:04:04.786Z,8.18
2022-11-16T04:19:25.485Z,8.16
2022-11-16T04:34:45.941Z,8.24
2022-11-16T04:49:47.639Z,8.31
2022-11-16T05:04:49.225Z,8.47
2022-11-16T05:20:10.949Z,8.68
2022-11-16T05:35:20.393Z,8.79
2022-11-16T05:50:21.946Z,8.88
2022-11-16T06:05:40.745Z,8.76
2022-11-16T06:20:54.850Z,8.61
2022-11-16T06:35:57.948Z,8.38
2022-11-16T06:50:59.825Z,8.31
2022-11-16T07:06:01.679Z,8.43
2022-11-16T07:21:03.381Z,8.50
2022-11-16T07:36:04.887Z,8.60
2022-11-16T07:51:07.820Z,8.75
2022-11-16T08:06:15.506Z,8.88
2022-11-16T08:21:17.923Z,9.26
2022-11-16T08:36:20.324Z,10.01
2022-11-16T08:51:23.598Z,9.98
2022-11-16T09:06:32.228Z,10.12
2022-11-16T09:21:36.079Z,10.85
2022-11-16T09:36:37.518Z,10.43
2022-11-16T09:51:38.904Z,11.11
2022-11-16T10:06:40.263Z,11.09
2022-11-16T10:21:42.092Z,10.96
2022-11-16T10:36:43.491Z,11.44
2022-11-16T10:51:44.868Z,11.29
2022-11-16T11:06:46.264Z,11.01
2022-11-16T11:21:47.833Z,10.60
2022-11-16T11:36:49.275Z,10.51
2022-11-16T11:51:50.643Z,11.01
2022-11-16T12:06:52.062Z,11.30
2022-11-16T12:21:53.412Z,10.93
2022-11-16T12:36:57.220Z,10.83
2022-11-16T12:51:58.792Z,10.49
2022-11-16T13:07:00.234Z,10.14
2022-11-16T13:22:03.507Z,10.30
2022-11-16T13:37:05.032Z,10.75
2022-11-16T13:52:22.658Z,10.45
2022-11-16T14:07:25.420Z,10.16
2022-11-16T14:22:29.092Z,9.66
2022-11-16T14:37:30.535Z,9.31
2022-11-16T14:52:31.927Z,9.17
2022-11-16T15:07:33.330Z,9.26
2022-11-16T15:22:34.780Z,8.80
2022-11-16T15:37:36.193Z,8.59
2022-11-16T15:52:40.569Z,8.29
2022-11-16T16:07:41.948Z,8.09
2022-11-16T16:22:44.506Z,8.12
2022-11-16T16:37:46.710Z,8.51
2022-11-16T16:52:48.634Z,8.70
2022-11-16T17:07:50.026Z,8.66
2022-11-16T17:22:52.767Z,8.51
2022-11-16T17:37:54.533Z,8.43
2022-11-16T17:52:58.255Z,7.89
2022-11-16T18:07:59.881Z,7.64
2022-11-16T18:23:01.267Z,7.70
2022-11-16T18:38:02.738Z,7.70
2022-11-16T18:53:05.035Z,7.76
2022-11-16T19:08:06.558Z,7.60
2022-11-16T19:23:08.116Z,7.39
2022-11-16T19:38:09.594Z,7.35
2022-11-16T19:53:11.055Z,7.37
2022-11-16T20:08:12.482Z,7.42
2022-11-16T20:23:14.434Z,7.44
2022-11-16T20:38:15.863Z,7.27
2022-11-16T20:53:17.808Z,7.06
2022-11-16T21:08:22.307Z,7.02
2022-11-16T21:23:23.785Z,6.90
2022-11-16T21:38:28.156Z,7.27
2022-11-16T21:53:29.568Z,7.32
2022-11-16T22:08:31.002Z,7.41
2022-11-16T22:23:32.479Z,7.60
2022-11-16T22:38:34.030Z,7.61
2022-11-16T22:53:35.747Z,7.64
2022-11-16T23:08:37.756Z,7.58
2022-11-16T23:23:57.643Z,7.73
2022-11-16T23:38:59.055Z,7.79
2022-11-16T23:54:00.532Z,7.62
